createdAt,value
2023-01-29T00:01:58.530Z,99929.09
2023-01-29T00:04:26.100Z,99924.78
2023-01-29T00:06:53.455Z,99922.16
2023-01-29T00:09:20.817Z,99921.28
2023-01-29T00:11:48.385Z,99923.00
2023-01-29T00:14:15.604Z,99930.81
2023-01-29T00:16:43.487Z,99932.53
2023-01-29T00:19:11.143Z,99932.53
2023-01-29T00:21:38.341Z,99922.13
2023-01-29T00:24:05.764Z,99935.13
2023-01-29T00:26:33.265Z,99939.50
2023-01-29T00:29:02.072Z,99935.13
2023-01-29T00:31:29.591Z,99941.16
2023-01-29T00:33:57.448Z,99942.94
2023-01-29T00:36:25.586Z,99945.53
2023-01-29T00:39:00.654Z,99948.97
2023-01-29T00:41:48.032Z,99953.31
2023-01-29T00:44:34.309Z,99955.06
2023-01-29T00:47:02.488Z,99951.62
2023-01-29T00:49:30.500Z,99949.88
2023-01-29T00:52:17.449Z,99949.88
2023-01-29T00:54:44.965Z,99951.62
2023-01-29T00:57:12.147Z,99959.38
2023-01-29T00:59:39.305Z,99957.66
2023-01-29T01:02:25.377Z,99964.59
2023-01-29T01:04:52.852Z,99952.47
2023-01-29T01:07:20.406Z,99961.13
2023-01-29T01:10:06.153Z,99954.22
2023-01-29T01:12:34.082Z,99956.81
2023-01-29T01:15:01.292Z,99958.53
2023-01-29T01:17:28.498Z,99955.06
2023-01-29T01:19:56.486Z,99960.28
2023-01-29T01:22:23.672Z,99949.88
2023-01-29T01:24:50.888Z,99955.06
2023-01-29T01:27:19.664Z,99963.75
2023-01-29T01:29:47.251Z,99964.63
2023-01-29T01:32:14.474Z,99963.72
2023-01-29T01:34:42.085Z,99964.59
2023-01-29T01:37:09.290Z,99969.78
2023-01-29T01:39:36.476Z,99967.19
2023-01-29T01:42:04.054Z,99966.31
2023-01-29T01:44:49.801Z,99966.31
2023-01-29T01:47:20.444Z,99970.66
2023-01-29T01:49:48.009Z,99969.78
2023-01-29T01:52:17.038Z,99972.38
2023-01-29T01:54:45.216Z,99986.22
2023-01-29T01:57:18.182Z,99975.84
2023-01-29T01:59:48.589Z,99974.09
2023-01-29T02:02:36.075Z,99969.81
2023-01-29T02:05:22.252Z,99978.44
2023-01-29T02:08:09.120Z,99972.34
2023-01-29T02:10:40.756Z,99980.97
2023-01-29T02:13:08.681Z,99981.00
2023-01-29T02:15:35.956Z,99980.13
2023-01-29T02:18:03.389Z,99979.22
2023-01-29T02:20:34.499Z,99983.56
2023-01-29T02:23:07.825Z,99982.69
2023-01-29T02:25:35.597Z,99989.59
2023-01-29T02:28:25.779Z,99987.84
2023-01-29T02:30:59.019Z,99991.31
2023-01-29T02:33:26.231Z,99988.69
2023-01-29T02:36:00.972Z,99989.56
2023-01-29T02:38:34.600Z,99993.91
2023-01-29T02:41:05.408Z,99995.63
2023-01-29T02:43:32.712Z,99991.31
2023-01-29T02:46:29.475Z,99994.75
2023-01-29T02:49:00.362Z,99999.94
2023-01-29T02:51:39.501Z,99999.94
2023-01-29T02:54:16.717Z,99996.50
2023-01-29T02:56:58.861Z,100007.72
2023-01-29T02:59:39.450Z,100004.25
2023-01-29T03:02:20.047Z,100001.72
2023-01-29T03:04:51.905Z,100007.78
2023-01-29T03:07:41.059Z,100014.69
2023-01-29T03:10:18.496Z,100018.12
2023-01-29T03:12:49.424Z,100013.84
2023-01-29T03:15:28.569Z,100005.19
2023-01-29T03:18:05.144Z,100008.66
2023-01-29T03:20:36.197Z,100015.59
2023-01-29T03:23:09.213Z,100022.50
2023-01-29T03:25:57.569Z,100018.19
2023-01-29T03:28:48.811Z,100013.00
2023-01-29T03:31:36.296Z,100020.81
2023-01-29T03:34:08.986Z,100023.41
2023-01-29T03:36:45.607Z,100025.12
2023-01-29T03:39:15.223Z,100037.25
2023-01-29T03:41:55.011Z,100027.75
2023-01-29T03:44:28.298Z,100031.19
2023-01-29T03:46:58.727Z,100030.34
2023-01-29T03:49:39.222Z,100030.34
2023-01-29T03:52:20.482Z,100039.00
2023-01-29T03:54:57.794Z,100033.78
2023-01-29T03:57:36.142Z,100042.47
2023-01-29T04:00:16.128Z,100047.66
2023-01-29T04:02:55.644Z,100038.13
2023-01-29T04:05:25.869Z,100042.47
2023-01-29T04:08:01.217Z,100033.81
2023-01-29T04:10:29.710Z,100038.13
2023-01-29T04:13:00.927Z,100036.41
2023-01-29T04:15:31.293Z,100033.81
2023-01-29T04:17:58.703Z,100045.03
2023-01-29T04:20:26.776Z,100037.28
2023-01-29T04:22:54.915Z,100050.22
2023-01-29T04:25:26.617Z,100042.47
2023-01-29T04:28:16.370Z,100033.78
2023-01-29T04:30:54.606Z,100036.41
2023-01-29T04:33:35.682Z,100033.81
2023-01-29T04:36:26.175Z,100032.94
2023-01-29T04:38:56.734Z,100032.09
2023-01-29T04:41:26.988Z,100037.25
2023-01-29T04:44:18.093Z,100035.53
2023-01-29T04:47:04.139Z,100035.53
2023-01-29T04:49:31.857Z,100033.81
2023-01-29T04:52:08.505Z,100043.31
2023-01-29T04:54:41.829Z,100048.50
2023-01-29T04:57:18.091Z,100047.63
2023-01-29T04:59:48.469Z,100041.59
2023-01-29T05:02:15.877Z,100047.66
2023-01-29T05:04:44.780Z,100036.41
2023-01-29T05:07:14.063Z,100039.84
2023-01-29T05:09:43.810Z,100038.13
2023-01-29T05:12:12.783Z,100037.25
2023-01-29T05:14:43.005Z,100039.84
2023-01-29T05:17:18.199Z,100038.13
2023-01-29T05:19:46.738Z,100044.19
2023-01-29T05:22:16.750Z,100044.19
2023-01-29T05:24:44.652Z,100045.06
2023-01-29T05:27:41.373Z,100042.44
2023-01-29T05:30:10.299Z,100045.06
2023-01-29T05:32:39.724Z,100039.00
2023-01-29T05:35:07.206Z,100033.81
2023-01-29T05:37:34.494Z,100034.66
2023-01-29T05:40:02.060Z,100039.00
2023-01-29T05:42:29.373Z,100037.25
2023-01-29T05:44:56.646Z,100034.69
2023-01-29T05:47:24.256Z,100039.00
2023-01-29T05:49:51.582Z,100039.88
2023-01-29T05:52:18.859Z,100039.00
2023-01-29T05:54:46.451Z,100032.94
2023-01-29T05:57:14.736Z,100037.25
2023-01-29T05:59:42.020Z,100047.63
2023-01-29T06:02:09.629Z,100042.47
2023-01-29T06:04:37.329Z,100049.38
2023-01-29T06:07:05.199Z,100047.63
2023-01-29T06:09:32.560Z,100047.66
2023-01-29T06:12:00.146Z,100052.84
2023-01-29T06:14:27.478Z,100049.38
2023-01-29T06:16:54.744Z,100057.16
2023-01-29T06:19:22.409Z,100060.63
2023-01-29T06:21:49.660Z,100070.16
2023-01-29T06:24:16.981Z,100066.69
2023-01-29T06:26:44.560Z,100075.34
2023-01-29T06:29:11.807Z,100075.34
2023-01-29T06:31:39.839Z,100077.94
2023-01-29T06:34:08.445Z,100086.59
2023-01-29T06:36:35.934Z,100090.06
2023-01-29T06:39:04.021Z,100100.44
2023-01-29T06:41:31.645Z,100104.75
2023-01-29T06:43:58.907Z,100105.63
2023-01-29T06:46:26.131Z,100101.28
2023-01-29T06:48:53.648Z,100104.75
2023-01-29T06:51:22.966Z,100114.28
2023-01-29T06:53:50.281Z,100109.94
2023-01-29T06:56:17.802Z,100109.09
2023-01-29T06:58:45.038Z,100112.53
2023-01-29T07:01:17.561Z,100113.38
2023-01-29T07:03:56.641Z,100108.22
2023-01-29T07:06:30.129Z,100106.50
2023-01-29T07:08:57.693Z,100108.22
2023-01-29T07:11:24.918Z,100103.88
2023-01-29T07:13:52.127Z,100106.50
2023-01-29T07:16:19.681Z,100107.34
2023-01-29T07:18:46.848Z,100101.31
2023-01-29T07:21:14.218Z,100106.50
2023-01-29T07:23:41.704Z,100105.63
2023-01-29T07:26:10.413Z,100103.06
2023-01-29T07:28:38.205Z,100099.59
2023-01-29T07:31:06.554Z,100088.31
2023-01-29T07:33:34.351Z,100080.56
2023-01-29T07:36:01.864Z,100083.12
2023-01-29T07:38:29.479Z,100075.34
2023-01-29T07:40:56.733Z,100067.56
2023-01-29T07:43:25.083Z,100070.16
2023-01-29T07:45:52.819Z,100075.34
2023-01-29T07:48:20.187Z,100076.19
2023-01-29T07:50:54.536Z,100078.81
2023-01-29T07:53:22.222Z,100075.34
2023-01-29T07:55:49.569Z,100067.56
2023-01-29T07:58:17.116Z,100077.06
2023-01-29T08:00:45.032Z,100078.78
2023-01-29T08:03:16.624Z,100079.62
2023-01-29T08:05:44.406Z,100083.09
2023-01-29T08:08:11.723Z,100077.94
2023-01-29T08:10:40.049Z,100072.75
2023-01-29T08:13:08.115Z,100067.53
2023-01-29T08:15:37.895Z,100073.56
2023-01-29T08:18:06.418Z,100074.41
2023-01-29T08:20:33.789Z,100079.66
2023-01-29T08:23:02.329Z,100081.37
2023-01-29T08:25:30.497Z,100083.09
2023-01-29T08:27:58.448Z,100086.56
2023-01-29T08:30:26.946Z,100091.78
2023-01-29T08:32:54.969Z,100089.19
2023-01-29T08:35:22.537Z,100090.06
2023-01-29T08:37:54.083Z,100099.56
2023-01-29T08:40:21.840Z,100105.63
2023-01-29T08:42:49.219Z,100103.91
2023-01-29T08:45:16.683Z,100103.91
2023-01-29T08:47:48.129Z,100105.66
2023-01-29T08:50:16.917Z,100108.22
2023-01-29T08:52:44.912Z,100114.28
2023-01-29T08:55:12.605Z,100110.84
2023-01-29T08:57:39.998Z,100116.88
2023-01-29T09:00:09.288Z,100116.91
2023-01-29T09:02:37.014Z,100125.53
2023-01-29T09:05:04.498Z,100116.91
2023-01-29T09:07:32.052Z,100120.34
2023-01-29T09:09:59.344Z,100117.75
2023-01-29T09:12:26.646Z,100119.50
2023-01-29T09:14:54.247Z,100135.97
2023-01-29T09:17:21.693Z,100135.94
2023-01-29T09:19:49.041Z,100122.94
2023-01-29T09:22:16.708Z,100126.44
2023-01-29T09:24:43.989Z,100116.03
2023-01-29T09:27:11.388Z,100129.88
2023-01-29T09:29:38.988Z,100133.38
2023-01-29T09:32:06.909Z,100119.47
2023-01-29T09:34:34.621Z,100130.75
2023-01-29T09:37:02.204Z,100131.59
2023-01-29T09:39:29.698Z,100139.41
2023-01-29T09:42:08.231Z,100139.44
2023-01-29T09:44:54.800Z,100144.59
2023-01-29T09:47:24.222Z,100152.37
2023-01-29T09:50:20.839Z,100156.75
2023-01-29T09:52:50.791Z,100154.97
2023-01-29T09:55:22.945Z,100155.81
2023-01-29T09:57:51.932Z,100163.63
2023-01-29T10:00:24.668Z,100166.22
2023-01-29T10:05:48.788Z,100167.13
2023-01-29T10:08:54.840Z,100162.75
2023-01-29T10:11:40.908Z,100173.16
2023-01-29T10:14:08.364Z,100166.25
2023-01-29T10:16:49.747Z,100168.84
2023-01-29T10:19:30.098Z,100176.63
2023-01-29T10:22:14.033Z,100187.03
2023-01-29T10:24:50.086Z,100170.59
2023-01-29T10:27:18.126Z,100169.72
2023-01-29T10:29:46.949Z,100172.31
2023-01-29T10:32:19.199Z,100167.97
2023-01-29T10:34:49.872Z,100183.56
2023-01-29T10:37:37.297Z,100167.13
2023-01-29T10:40:21.374Z,100173.19
2023-01-29T10:43:05.201Z,100169.69
2023-01-29T10:45:41.664Z,100167.09
2023-01-29T10:48:12.023Z,100163.63
2023-01-29T10:50:49.678Z,100162.78
2023-01-29T10:53:27.401Z,100152.37
2023-01-29T10:55:54.936Z,100142.81
2023-01-29T10:58:32.815Z,100149.75
2023-01-29T11:01:00.569Z,100140.22
2023-01-29T11:03:29.593Z,100142.81
2023-01-29T11:06:19.041Z,100141.94
2023-01-29T11:08:46.490Z,100129.81
2023-01-29T11:11:18.134Z,100126.31
2023-01-29T11:13:48.897Z,100133.25
2023-01-29T11:16:16.410Z,100123.72
2023-01-29T11:18:50.644Z,100131.44
2023-01-29T11:21:18.300Z,100121.87
2023-01-29T11:23:46.589Z,100118.28
2023-01-29T11:26:17.366Z,100104.38
2023-01-29T11:28:45.901Z,100102.63
2023-01-29T11:31:17.447Z,100092.94
2023-01-29T11:33:45.915Z,100094.84
2023-01-29T11:36:28.532Z,100092.16
2023-01-29T11:39:11.448Z,100093.81
2023-01-29T11:41:47.274Z,100091.22
2023-01-29T11:44:22.556Z,100092.97
2023-01-29T11:46:50.262Z,100090.25
2023-01-29T11:49:32.424Z,100090.41
2023-01-29T11:52:01.948Z,100075.53
2023-01-29T11:54:32.353Z,100078.16
2023-01-29T11:57:00.711Z,100068.59
2023-01-29T11:59:32.427Z,100064.25
2023-01-29T12:02:13.648Z,100060.87
2023-01-29T12:04:41.383Z,100064.37
2023-01-29T12:07:12.818Z,100045.91
2023-01-29T12:09:40.452Z,100052.97
2023-01-29T12:12:37.669Z,100045.97
2023-01-29T12:15:11.250Z,100059.25
2023-01-29T12:17:39.656Z,100061.19
2023-01-29T12:20:12.732Z,100056.94
2023-01-29T12:22:47.660Z,100039.66
2023-01-29T12:25:29.917Z,100047.59
2023-01-29T12:28:20.484Z,100048.50
2023-01-29T12:30:50.618Z,100049.38
2023-01-29T12:33:20.958Z,100044.19
2023-01-29T12:35:50.634Z,100038.13
2023-01-29T12:38:19.268Z,100033.75
2023-01-29T12:40:46.513Z,100033.69
2023-01-29T12:43:16.055Z,100033.69
2023-01-29T12:45:44.770Z,100029.28
2023-01-29T12:48:13.929Z,100043.13
2023-01-29T12:50:41.227Z,100037.91
2023-01-29T12:53:11.939Z,100030.00
2023-01-29T12:55:44.346Z,100030.06
2023-01-29T12:58:14.905Z,100019.78
2023-01-29T13:00:47.937Z,100022.31
2023-01-29T13:03:18.623Z,100026.63
2023-01-29T13:05:47.786Z,100021.53
2023-01-29T13:08:18.690Z,100014.59
2023-01-29T13:10:49.111Z,100012.06
2023-01-29T13:13:32.088Z,99999.13
2023-01-29T13:16:01.083Z,99996.53
2023-01-29T13:18:37.787Z,99999.16
2023-01-29T13:21:05.387Z,99987.03
2023-01-29T13:23:52.902Z,99990.44
2023-01-29T13:26:21.350Z,99984.38
2023-01-29T13:28:49.450Z,99983.47
2023-01-29T13:31:33.647Z,99983.44
2023-01-29T13:34:14.543Z,99976.50
2023-01-29T13:36:46.934Z,99968.75
2023-01-29T13:39:20.610Z,99974.00
2023-01-29T13:41:48.083Z,99968.81
2023-01-29T13:44:23.451Z,99979.16
2023-01-29T13:46:56.020Z,99979.19
2023-01-29T13:49:29.446Z,99974.91
2023-01-29T13:51:57.285Z,99988.72
2023-01-29T13:54:26.195Z,99979.22
2023-01-29T13:56:59.320Z,99984.41
2023-01-29T13:59:45.974Z,99974.06
2023-01-29T14:02:26.467Z,99961.00
2023-01-29T14:05:13.086Z,99966.12
2023-01-29T14:07:40.972Z,99970.47
2023-01-29T14:10:19.127Z,99947.91
2023-01-29T14:12:47.192Z,99967.03
2023-01-29T14:15:21.503Z,99977.44
2023-01-29T14:18:08.192Z,99985.22
2023-01-29T14:20:46.453Z,99975.66
2023-01-29T14:23:43.222Z,99970.56
2023-01-29T14:26:19.892Z,99972.25
2023-01-29T14:29:07.580Z,99973.09
2023-01-29T14:31:42.956Z,99980.91
2023-01-29T14:34:22.228Z,99978.34
2023-01-29T14:36:55.394Z,99976.59
2023-01-29T14:39:31.108Z,99977.44
2023-01-29T14:41:59.854Z,99967.97
2023-01-29T14:44:45.551Z,99974.91
2023-01-29T14:47:43.166Z,99974.97
2023-01-29T14:50:28.525Z,99971.47
2023-01-29T14:53:03.245Z,99985.37
2023-01-29T14:55:35.772Z,99987.09
2023-01-29T14:58:04.128Z,99987.06
2023-01-29T15:00:34.513Z,99988.81
2023-01-29T15:03:03.918Z,99981.03
2023-01-29T15:05:32.867Z,99982.75
2023-01-29T15:08:20.392Z,99971.50
2023-01-29T15:11:10.935Z,99974.97
2023-01-29T15:13:44.091Z,99976.69
2023-01-29T15:16:17.246Z,99980.13
2023-01-29T15:18:44.428Z,99976.66
2023-01-29T15:21:16.232Z,99977.53
2023-01-29T15:23:44.581Z,99974.94
2023-01-29T15:26:16.167Z,99973.22
2023-01-29T15:28:47.191Z,99973.22
2023-01-29T15:31:20.220Z,99973.22
2023-01-29T15:33:49.066Z,99974.91
2023-01-29T15:36:27.058Z,99975.78
2023-01-29T15:39:10.819Z,99966.28
2023-01-29T15:41:38.633Z,99965.38
2023-01-29T15:44:14.701Z,99967.97
2023-01-29T15:46:43.869Z,99968.81
2023-01-29T15:49:16.583Z,99972.25
2023-01-29T15:51:44.040Z,99973.09
2023-01-29T15:54:15.704Z,99977.38
2023-01-29T15:56:45.073Z,99976.53
2023-01-29T15:59:16.858Z,99979.13
2023-01-29T16:01:44.434Z,99976.56
2023-01-29T16:04:14.957Z,99983.44
2023-01-29T16:06:42.858Z,99982.53
2023-01-29T16:09:12.169Z,99981.72
2023-01-29T16:11:40.447Z,99983.41
2023-01-29T16:14:08.324Z,99984.28
2023-01-29T16:16:35.774Z,99991.16
2023-01-29T16:19:13.450Z,99986.00
2023-01-29T16:21:44.288Z,99992.06
2023-01-29T16:24:13.996Z,99989.47
2023-01-29T16:26:46.866Z,99998.91
2023-01-29T16:29:16.343Z,99997.16
2023-01-29T16:31:44.804Z,99992.00
2023-01-29T16:34:19.457Z,100004.06
2023-01-29T16:36:48.317Z,100011.03
2023-01-29T16:39:21.515Z,100006.75
2023-01-29T16:42:08.293Z,100012.72
2023-01-29T16:44:36.305Z,100007.50
2023-01-29T16:47:11.799Z,100006.66
2023-01-29T16:49:39.066Z,100005.84
2023-01-29T16:52:19.116Z,100009.28
2023-01-29T16:54:46.386Z,100016.19
2023-01-29T16:57:16.199Z,100021.28
2023-01-29T16:59:43.596Z,100013.53
2023-01-29T17:02:33.259Z,100009.19
2023-01-29T17:05:04.186Z,100006.63
2023-01-29T17:07:32.718Z,100010.91
2023-01-29T17:10:02.257Z,100012.59
2023-01-29T17:12:31.039Z,100017.72
2023-01-29T17:15:00.163Z,100010.81
2023-01-29T17:17:32.423Z,100008.16
2023-01-29T17:20:12.119Z,100008.19
2023-01-29T17:22:39.502Z,100015.06
2023-01-29T17:25:07.296Z,100016.78
2023-01-29T17:27:34.606Z,100015.06
2023-01-29T17:30:01.889Z,100015.84
2023-01-29T17:32:43.568Z,100016.69
2023-01-29T17:35:13.998Z,100005.50
2023-01-29T17:37:41.669Z,100006.31
2023-01-29T17:40:15.017Z,100002.75
2023-01-29T17:42:42.806Z,100002.75
2023-01-29T17:45:10.859Z,100006.13
2023-01-29T17:47:38.176Z,99995.88
2023-01-29T17:50:16.365Z,100001.91
2023-01-29T17:52:43.698Z,99991.56
2023-01-29T17:55:11.240Z,99989.81
2023-01-29T17:57:38.566Z,99989.81
2023-01-29T18:00:13.574Z,99988.91
2023-01-29T18:02:41.163Z,99984.63
2023-01-29T18:05:08.530Z,99981.97
2023-01-29T18:07:37.238Z,99969.91
2023-01-29T18:10:05.173Z,99970.75
2023-01-29T18:12:32.540Z,99970.75
2023-01-29T18:14:59.794Z,99973.41
2023-01-29T18:17:27.677Z,99965.59
2023-01-29T18:19:56.574Z,99959.53
2023-01-29T18:22:24.004Z,99957.78
2023-01-29T18:24:51.581Z,99960.31
2023-01-29T18:27:19.513Z,99962.91
2023-01-29T18:29:46.866Z,99957.59
2023-01-29T18:32:14.482Z,99956.75
2023-01-29T18:34:41.786Z,99952.53
2023-01-29T18:37:10.928Z,99954.25
2023-01-29T18:39:39.772Z,99955.09
2023-01-29T18:42:07.067Z,99953.34
2023-01-29T18:44:34.358Z,99950.81
2023-01-29T18:47:01.940Z,99954.19
2023-01-29T18:49:29.272Z,99952.53
2023-01-29T18:51:56.702Z,99951.53
2023-01-29T18:54:24.291Z,99950.81
2023-01-29T18:57:06.137Z,99960.16
2023-01-29T18:59:39.081Z,99961.78
2023-01-29T19:02:06.972Z,99967.81
2023-01-29T19:04:34.226Z,99964.25
2023-01-29T19:07:01.826Z,99954.91
2023-01-29T19:09:29.224Z,99957.41
2023-01-29T19:11:56.542Z,99960.72
2023-01-29T19:14:24.091Z,99959.03
2023-01-29T19:16:51.378Z,99966.75
2023-01-29T19:19:18.990Z,99965.97
2023-01-29T19:21:46.608Z,99957.34
2023-01-29T19:24:14.731Z,99964.03
2023-01-29T19:26:42.029Z,99955.44
2023-01-29T19:29:09.723Z,99953.78
2023-01-29T19:31:37.201Z,99954.69
2023-01-29T19:34:04.601Z,99954.72
2023-01-29T19:36:32.201Z,99955.41
2023-01-29T19:38:59.497Z,99952.94
2023-01-29T19:41:26.899Z,99954.66
2023-01-29T19:43:54.541Z,99951.25
2023-01-29T19:46:21.834Z,99940.03
2023-01-29T19:48:49.038Z,99945.97
2023-01-29T19:51:16.523Z,99948.63
2023-01-29T19:53:44.191Z,99947.72
2023-01-29T19:56:12.799Z,99947.66
2023-01-29T19:58:40.504Z,99949.38
2023-01-29T20:01:13.273Z,99945.13
2023-01-29T20:03:46.486Z,99944.28
2023-01-29T20:06:15.411Z,99946.88
2023-01-29T20:08:45.437Z,99936.47
2023-01-29T20:11:13.357Z,99941.59
2023-01-29T20:13:40.739Z,99945.88
2023-01-29T20:16:08.692Z,99937.16
2023-01-29T20:18:35.986Z,99937.22
2023-01-29T20:21:11.016Z,99938.94
2023-01-29T20:23:41.653Z,99939.00
2023-01-29T20:26:11.224Z,99938.94
2023-01-29T20:28:39.236Z,99942.41
2023-01-29T20:31:07.774Z,99931.09
2023-01-29T20:33:38.169Z,99937.06
2023-01-29T20:36:08.295Z,99932.69
2023-01-29T20:38:35.925Z,99928.66
2023-01-29T20:41:03.313Z,99929.44
2023-01-29T20:43:31.292Z,99931.13
2023-01-29T20:45:58.978Z,99926.13
2023-01-29T20:48:26.576Z,99927.03
2023-01-29T20:50:54.283Z,99913.25
2023-01-29T20:53:21.844Z,99917.56
2023-01-29T20:55:49.257Z,99918.34
2023-01-29T20:58:17.009Z,99911.63
2023-01-29T21:00:44.513Z,99919.25
2023-01-29T21:03:11.915Z,99913.28
2023-01-29T21:05:39.709Z,99921.81
2023-01-29T21:08:07.263Z,99923.50
2023-01-29T21:10:34.556Z,99926.91
2023-01-29T21:13:02.137Z,99917.31
2023-01-29T21:15:29.590Z,99926.84
2023-01-29T21:17:59.526Z,99932.81
2023-01-29T21:20:27.135Z,99936.19
2023-01-29T21:22:54.449Z,99945.66
2023-01-29T21:25:23.032Z,99944.88
2023-01-29T21:27:51.065Z,99941.50
2023-01-29T21:30:19.341Z,99939.78
2023-01-29T21:32:46.973Z,99938.91
2023-01-29T21:35:15.064Z,99938.19
2023-01-29T21:37:42.401Z,99947.63
2023-01-29T21:40:10.063Z,99944.94
2023-01-29T21:42:56.041Z,99944.06
2023-01-29T21:45:23.389Z,99931.09
2023-01-29T21:47:50.973Z,99935.34
2023-01-29T21:50:18.665Z,99931.87
2023-01-29T21:52:46.186Z,99928.50
2023-01-29T21:55:14.637Z,99932.84
2023-01-29T21:57:42.985Z,99927.66
2023-01-29T22:00:12.073Z,99927.69
2023-01-29T22:02:39.957Z,99931.91
2023-01-29T22:05:18.203Z,99926.69
2023-01-29T22:07:47.714Z,99923.22
2023-01-29T22:10:16.260Z,99924.19
2023-01-29T22:12:44.700Z,99921.47
2023-01-29T22:15:12.869Z,99916.31
2023-01-29T22:17:43.089Z,99910.41
2023-01-29T22:20:11.383Z,99906.09
2023-01-29T22:22:39.254Z,99906.88
2023-01-29T22:25:06.730Z,99899.09
2023-01-29T22:27:34.348Z,99907.72
2023-01-29T22:30:02.018Z,99900.94
2023-01-29T22:32:31.505Z,99887.28
2023-01-29T22:34:58.859Z,99884.84
2023-01-29T22:37:26.464Z,99893.34
2023-01-29T22:39:53.769Z,99892.34
2023-01-29T22:42:21.148Z,99886.41
2023-01-29T22:44:48.810Z,99880.34
2023-01-29T22:47:16.160Z,99881.16
2023-01-29T22:49:45.632Z,99873.31
2023-01-29T22:52:13.830Z,99874.19
2023-01-29T22:54:42.266Z,99870.66
2023-01-29T22:57:13.160Z,99870.75
2023-01-29T22:59:41.194Z,99865.47
2023-01-29T23:02:08.959Z,99860.25
2023-01-29T23:04:36.779Z,99860.22
2023-01-29T23:07:04.429Z,99864.56
2023-01-29T23:09:31.774Z,99855.87
2023-01-29T23:11:59.089Z,99858.38
2023-01-29T23:14:26.599Z,99853.19
2023-01-29T23:16:53.761Z,99852.34
2023-01-29T23:19:21.016Z,99848.09
2023-01-29T23:21:48.538Z,99853.31
2023-01-29T23:24:15.744Z,99849.91
2023-01-29T23:27:01.594Z,99832.84
2023-01-29T23:29:29.090Z,99835.50
2023-01-29T23:31:56.321Z,99831.25
2023-01-29T23:34:23.970Z,99821.88
2023-01-29T23:36:51.522Z,99819.31
2023-01-29T23:39:18.822Z,99820.84
2023-01-29T23:41:46.029Z,99824.25
2023-01-29T23:44:14.028Z,99821.66
2023-01-29T23:46:41.268Z,99820.75
2023-01-29T23:49:08.704Z,99813.00
2023-01-29T23:51:36.279Z,99811.19
2023-01-29T23:54:03.875Z,99814.66
2023-01-29T23:56:31.561Z,99819.00
2023-01-29T23:58:59.202Z,99805.06
